createdAt,value
2019-01-28T00:00:56.734Z,96581.92
2019-01-28T00:03:28.379Z,96580.57
2019-01-28T00:05:59.941Z,96579.69
2019-01-28T00:08:31.472Z,96583.95
2019-01-28T00:11:03.120Z,96585.06
2019-01-28T00:13:34.691Z,96583.73
2019-01-28T00:16:06.452Z,96571.87
2019-01-28T00:18:37.954Z,96568.44
2019-01-28T00:21:09.676Z,96580.44
2019-01-28T00:23:41.176Z,96577.95
2019-01-28T00:26:12.624Z,96572.27
2019-01-28T00:28:44.126Z,96567.97
2019-01-28T00:31:15.649Z,96556.98
2019-01-28T00:33:47.224Z,96557.86
2019-01-28T00:36:18.901Z,96563.63
2019-01-28T00:38:50.399Z,96570.61
2019-01-28T00:41:23.189Z,96562.13
2019-01-28T00:43:54.681Z,96551.41
2019-01-28T00:46:26.181Z,96554.34
2019-01-28T00:48:57.772Z,96557.78
2019-01-28T00:51:29.372Z,96564.15
2019-01-28T00:54:01.052Z,96559.74
2019-01-28T00:56:32.687Z,96551.66
2019-01-28T00:59:04.151Z,96544.28
2019-01-28T01:01:35.795Z,96542.66
2019-01-28T01:04:07.395Z,96533.42
2019-01-28T01:06:39.131Z,96526.91
2019-01-28T01:09:10.919Z,96527.27
2019-01-28T01:11:42.630Z,96518.48
2019-01-28T01:14:14.135Z,96508.77
2019-01-28T01:16:45.711Z,96499.89
2019-01-28T01:19:17.256Z,96498.34
2019-01-28T01:21:48.872Z,96487.00
2019-01-28T01:24:20.438Z,96478.74
2019-01-28T01:26:51.921Z,96480.76
2019-01-28T01:29:23.556Z,96487.31
2019-01-28T01:31:55.110Z,96494.78
2019-01-28T01:34:26.651Z,96491.66
2019-01-28T01:36:58.211Z,96493.77
2019-01-28T01:39:29.651Z,96487.08
2019-01-28T01:42:01.302Z,96474.86
2019-01-28T01:44:32.939Z,96470.56
2019-01-28T01:47:04.553Z,96468.75
2019-01-28T01:49:36.125Z,96465.53
2019-01-28T01:52:07.863Z,96458.80
2019-01-28T01:54:39.503Z,96459.16
2019-01-28T01:57:11.201Z,96452.78
2019-01-28T01:59:42.672Z,96441.16
2019-01-28T02:02:14.136Z,96446.02
2019-01-28T02:04:45.782Z,96446.14
2019-01-28T02:07:17.293Z,96450.36
2019-01-28T02:09:48.821Z,96456.49
2019-01-28T02:12:20.409Z,96460.11
2019-01-28T02:14:51.995Z,96462.13
2019-01-28T02:17:23.553Z,96465.72
2019-01-28T02:19:55.039Z,96459.43
2019-01-28T02:22:26.632Z,96460.27
2019-01-28T02:24:58.164Z,96474.20
2019-01-28T02:27:29.599Z,96471.56
2019-01-28T02:30:01.084Z,96475.33
2019-01-28T02:32:32.735Z,96476.61
2019-01-28T02:35:04.279Z,96470.97
2019-01-28T02:37:36.069Z,96475.21
2019-01-28T02:40:10.519Z,96472.45
2019-01-28T02:42:42.181Z,96475.36
2019-01-28T02:45:14.578Z,96478.74
2019-01-28T02:47:46.084Z,96477.77
2019-01-28T02:50:19.113Z,96473.02
2019-01-28T02:52:50.734Z,96474.38
2019-01-28T02:55:22.312Z,96474.59
2019-01-28T02:57:53.803Z,96477.58
2019-01-28T03:00:25.591Z,96483.96
2019-01-28T03:02:57.227Z,96489.45
2019-01-28T03:05:28.802Z,96475.03
2019-01-28T03:08:00.394Z,96483.37
2019-01-28T03:10:32.031Z,96485.63
2019-01-28T03:13:03.470Z,96453.47
2019-01-28T03:15:35.042Z,96477.94
2019-01-28T03:18:07.527Z,96480.73
2019-01-28T03:20:39.009Z,96478.17
2019-01-28T03:23:11.800Z,96476.07
2019-01-28T03:25:43.307Z,96471.89
2019-01-28T03:28:14.813Z,96466.02
2019-01-28T03:30:46.352Z,96468.62
2019-01-28T03:33:18.586Z,96461.06
2019-01-28T03:35:50.112Z,96462.34
2019-01-28T03:38:21.676Z,96464.35
2019-01-28T03:40:53.230Z,96454.00
2019-01-28T03:43:25.911Z,96458.03
2019-01-28T03:45:57.438Z,96453.91
2019-01-28T03:48:28.914Z,96455.27
2019-01-28T03:51:00.411Z,96453.61
2019-01-28T03:53:32.133Z,96447.67
2019-01-28T03:56:03.794Z,96443.41
2019-01-28T03:58:35.281Z,96443.05
2019-01-28T04:01:07.042Z,96446.88
2019-01-28T04:03:38.628Z,96449.19
2019-01-28T04:06:10.152Z,96447.82
2019-01-28T04:08:41.706Z,96453.48
2019-01-28T04:11:13.240Z,96455.77
2019-01-28T04:13:44.701Z,96457.94
2019-01-28T04:16:16.191Z,96456.75
2019-01-28T04:18:47.861Z,96463.04
2019-01-28T04:21:19.426Z,96456.75
2019-01-28T04:23:51.000Z,96463.13
2019-01-28T04:26:23.662Z,96462.59
2019-01-28T04:28:55.165Z,96463.87
2019-01-28T04:31:28.178Z,96461.77
2019-01-28T04:34:00.124Z,96451.85
2019-01-28T04:36:31.762Z,96454.94
2019-01-28T04:39:03.877Z,96454.02
2019-01-28T04:41:35.433Z,96458.47
2019-01-28T04:44:07.107Z,96462.59
2019-01-28T04:46:38.761Z,96454.20
2019-01-28T04:49:10.314Z,96457.40
2019-01-28T04:51:41.793Z,96454.64
2019-01-28T04:54:13.387Z,96457.05
2019-01-28T04:56:45.009Z,96454.73
2019-01-28T04:59:16.548Z,96453.38
2019-01-28T05:01:48.134Z,96452.74
2019-01-28T05:04:19.757Z,96455.30
2019-01-28T05:06:51.420Z,96454.25
2019-01-28T05:09:22.871Z,96452.68
2019-01-28T05:11:54.409Z,96461.77
2019-01-28T05:14:25.912Z,96457.10
2019-01-28T05:16:57.613Z,96462.59
2019-01-28T05:19:30.735Z,96459.59
2019-01-28T05:22:02.477Z,96458.77
2019-01-28T05:24:33.987Z,96457.69
2019-01-28T05:27:05.443Z,96459.36
2019-01-28T05:29:36.983Z,96452.14
2019-01-28T05:32:08.582Z,96450.58
2019-01-28T05:34:40.122Z,96444.28
2019-01-28T05:37:12.651Z,96440.17
2019-01-28T05:39:44.179Z,96436.05
2019-01-28T05:42:15.914Z,96434.08
2019-01-28T05:44:47.475Z,96434.23
2019-01-28T05:47:18.990Z,96435.27
2019-01-28T05:49:50.589Z,96434.87
2019-01-28T05:52:22.194Z,96435.41
2019-01-28T05:54:53.896Z,96436.89
2019-01-28T05:57:25.356Z,96442.92
2019-01-28T05:59:59.385Z,96436.00
2019-01-28T06:02:30.931Z,96445.83
2019-01-28T06:05:03.580Z,96452.05
2019-01-28T06:07:35.133Z,96459.70
2019-01-28T06:10:07.791Z,96454.16
2019-01-28T06:12:39.320Z,96454.25
2019-01-28T06:15:13.734Z,96449.35
2019-01-28T06:17:45.393Z,96446.06
2019-01-28T06:20:19.511Z,96442.97
2019-01-28T06:22:51.139Z,96445.88
2019-01-28T06:25:22.791Z,96444.45
2019-01-28T06:27:54.298Z,96433.70
2019-01-28T06:30:28.142Z,96436.45
2019-01-28T06:32:59.806Z,96442.19
2019-01-28T06:35:31.477Z,96444.45
2019-01-28T06:38:03.089Z,96439.70
2019-01-28T06:40:36.451Z,96444.27
2019-01-28T06:43:08.111Z,96447.49
2019-01-28T06:45:39.637Z,96442.49
2019-01-28T06:48:12.351Z,96441.86
2019-01-28T06:50:43.909Z,96449.26
2019-01-28T06:53:15.495Z,96444.35
2019-01-28T06:55:46.893Z,96445.83
2019-01-28T06:58:18.400Z,96446.97
2019-01-28T07:00:49.823Z,96451.67
2019-01-28T07:03:21.334Z,96453.53
2019-01-28T07:05:52.854Z,96453.53
2019-01-28T07:08:25.652Z,96452.41
2019-01-28T07:10:57.267Z,96451.33
2019-01-28T07:13:28.870Z,96442.23
2019-01-28T07:16:01.951Z,96442.23
2019-01-28T07:18:33.434Z,96444.16
2019-01-28T07:21:04.989Z,96444.44
2019-01-28T07:23:36.383Z,96446.01
2019-01-28T07:26:08.029Z,96443.01
2019-01-28T07:28:39.579Z,96451.50
2019-01-28T07:31:11.028Z,96445.47
2019-01-28T07:33:42.394Z,96439.75
2019-01-28T07:36:14.013Z,96445.34
2019-01-28T07:38:45.481Z,96435.67
2019-01-28T07:41:17.101Z,96448.98
2019-01-28T07:43:48.630Z,96446.63
2019-01-28T07:46:20.152Z,96445.19
2019-01-28T07:48:51.643Z,96448.38
2019-01-28T07:51:23.116Z,96436.33
2019-01-28T07:53:54.693Z,96422.21
2019-01-28T07:56:26.359Z,96413.27
2019-01-28T07:58:57.810Z,96413.88
2019-01-28T08:01:29.383Z,96412.98
2019-01-28T08:04:00.912Z,96418.09
2019-01-28T08:06:32.494Z,96422.02
2019-01-28T08:09:05.993Z,96421.92
2019-01-28T08:11:37.640Z,96428.69
2019-01-28T08:14:09.234Z,96414.27
2019-01-28T08:16:41.928Z,96413.25
2019-01-28T08:19:13.592Z,96406.97
2019-01-28T08:21:45.243Z,96417.02
2019-01-28T08:24:16.839Z,96404.25
2019-01-28T08:26:48.422Z,96415.38
2019-01-28T08:29:20.081Z,96411.91
2019-01-28T08:31:51.783Z,96417.94
2019-01-28T08:34:23.299Z,96413.56
2019-01-28T08:36:54.907Z,96402.89
2019-01-28T08:39:26.462Z,96411.55
2019-01-28T08:41:58.034Z,96415.45
2019-01-28T08:44:29.457Z,96416.47
2019-01-28T08:47:01.068Z,96401.80
2019-01-28T08:49:32.572Z,96404.80
2019-01-28T08:52:04.547Z,96409.53
2019-01-28T08:54:37.772Z,96416.47
2019-01-28T08:57:09.211Z,96409.18
2019-01-28T08:59:40.799Z,96411.01
2019-01-28T09:02:12.670Z,96402.32
2019-01-28T09:04:44.272Z,96407.16
2019-01-28T09:07:17.112Z,96413.22
2019-01-28T09:09:50.976Z,96411.67
2019-01-28T09:12:22.506Z,96404.70
2019-01-28T09:14:54.186Z,96389.47
2019-01-28T09:17:25.778Z,96400.60
2019-01-28T09:19:58.974Z,96407.28
2019-01-28T09:22:30.676Z,96405.00
2019-01-28T09:25:02.555Z,96394.11
2019-01-28T09:27:34.191Z,96398.67
2019-01-28T09:30:07.475Z,96397.13
2019-01-28T09:32:39.222Z,96385.27
2019-01-28T09:35:11.017Z,96377.21
2019-01-28T09:37:42.547Z,96375.76
2019-01-28T09:40:16.021Z,96370.64
2019-01-28T09:42:47.640Z,96371.75
2019-01-28T09:45:21.865Z,96368.36
2019-01-28T09:47:53.453Z,96366.91
2019-01-28T09:50:25.702Z,96368.64
2019-01-28T09:53:00.420Z,96368.26
2019-01-28T09:55:32.098Z,96370.20
2019-01-28T09:58:03.517Z,96374.83
2019-01-28T10:00:43.935Z,96363.77
2019-01-28T10:03:19.488Z,96360.59
2019-01-28T10:05:53.043Z,96347.52
2019-01-28T10:08:24.642Z,96346.52
2019-01-28T10:10:56.255Z,96337.36
2019-01-28T10:13:27.792Z,96343.30
2019-01-28T10:15:59.474Z,96346.86
2019-01-28T10:18:31.032Z,96343.85
2019-01-28T10:21:03.545Z,96349.87
2019-01-28T10:23:35.035Z,96338.91
2019-01-28T10:26:06.713Z,96344.69
2019-01-28T10:28:38.292Z,96342.47
2019-01-28T10:31:09.959Z,96343.02
2019-01-28T10:33:41.446Z,96336.97
2019-01-28T10:36:13.221Z,96343.81
2019-01-28T10:38:44.804Z,96336.30
2019-01-28T10:41:16.385Z,96334.58
2019-01-28T10:43:47.978Z,96330.91
2019-01-28T10:46:20.840Z,96323.88
2019-01-28T10:48:52.541Z,96332.28
2019-01-28T10:51:25.201Z,96324.04
2019-01-28T10:53:56.936Z,96327.44
2019-01-28T10:56:28.520Z,96304.08
2019-01-28T10:58:59.992Z,96314.38
2019-01-28T11:01:31.524Z,96309.36
2019-01-28T11:04:03.055Z,96303.86
2019-01-28T11:06:34.649Z,96302.03
2019-01-28T11:09:08.978Z,96308.52
2019-01-28T11:11:42.416Z,96314.27
2019-01-28T11:14:14.332Z,96298.73
2019-01-28T11:16:46.510Z,96293.44
2019-01-28T11:19:18.610Z,96287.76
2019-01-28T11:21:51.165Z,96281.14
2019-01-28T11:24:22.729Z,96269.23
2019-01-28T11:26:56.361Z,96268.83
2019-01-28T11:29:29.066Z,96264.91
2019-01-28T11:32:00.702Z,96272.67
2019-01-28T11:34:32.836Z,96272.48
2019-01-28T11:37:04.531Z,96275.42
2019-01-28T11:39:36.915Z,96258.00
2019-01-28T11:42:11.110Z,96258.22
2019-01-28T11:44:42.621Z,96249.56
2019-01-28T11:47:14.357Z,96250.09
2019-01-28T11:49:46.107Z,96249.72
2019-01-28T11:52:17.641Z,96244.98
2019-01-28T11:54:49.423Z,96239.79
2019-01-28T11:57:20.942Z,96240.16
2019-01-28T11:59:53.562Z,96246.75
2019-01-28T12:02:25.001Z,96254.66
2019-01-28T12:04:56.558Z,96252.25
2019-01-28T12:07:28.178Z,96258.50
2019-01-28T12:09:59.680Z,96253.75
2019-01-28T12:12:31.708Z,96260.23
2019-01-28T12:15:03.356Z,96256.09
2019-01-28T12:17:34.826Z,96261.79
2019-01-28T12:20:07.902Z,96253.09
2019-01-28T12:22:40.989Z,96249.44
2019-01-28T12:25:14.288Z,96246.84
2019-01-28T12:27:45.936Z,96247.29
2019-01-28T12:30:25.739Z,96248.61
2019-01-28T12:32:57.517Z,96234.59
2019-01-28T12:35:29.205Z,96239.86
2019-01-28T12:38:00.790Z,96239.23
2019-01-28T12:40:32.406Z,96240.02
2019-01-28T12:43:04.026Z,96240.05
2019-01-28T12:45:35.507Z,96240.31
2019-01-28T12:48:07.135Z,96235.48
2019-01-28T12:50:39.778Z,96245.39
2019-01-28T12:53:11.381Z,96234.31
2019-01-28T12:55:43.182Z,96237.14
2019-01-28T12:58:14.815Z,96233.97
2019-01-28T13:00:51.142Z,96230.49
2019-01-28T13:03:22.751Z,96232.21
2019-01-28T13:05:54.353Z,96228.16
2019-01-28T13:08:27.725Z,96237.28
2019-01-28T13:11:00.189Z,96221.88
2019-01-28T13:13:31.818Z,96217.59
2019-01-28T13:16:03.431Z,96228.19
2019-01-28T13:18:35.668Z,96220.50
2019-01-28T13:21:10.292Z,96223.03
2019-01-28T13:23:42.998Z,96208.93
2019-01-28T13:26:17.421Z,96219.22
2019-01-28T13:28:51.305Z,96223.06
2019-01-28T13:31:25.460Z,96219.30
2019-01-28T13:33:56.943Z,96214.63
2019-01-28T13:36:29.559Z,96214.25
2019-01-28T13:39:01.102Z,96215.94
2019-01-28T13:41:34.136Z,96212.09
2019-01-28T13:44:05.584Z,96210.61
2019-01-28T13:46:37.134Z,96206.66
2019-01-28T13:49:08.831Z,96207.34
2019-01-28T13:51:43.707Z,96214.38
2019-01-28T13:54:15.704Z,96212.37
2019-01-28T13:56:47.310Z,96217.50
2019-01-28T13:59:18.921Z,96223.70
2019-01-28T14:01:50.489Z,96222.52
2019-01-28T14:04:21.943Z,96232.78
2019-01-28T14:06:55.773Z,96232.59
2019-01-28T14:09:27.331Z,96230.22
2019-01-28T14:11:58.952Z,96232.62
2019-01-28T14:14:32.873Z,96224.79
2019-01-28T14:17:04.499Z,96237.08
2019-01-28T14:19:37.129Z,96232.18
2019-01-28T14:22:09.001Z,96233.80
2019-01-28T14:24:41.711Z,96223.97
2019-01-28T14:27:13.237Z,96222.88
2019-01-28T14:29:44.712Z,96225.29
2019-01-28T14:32:16.321Z,96212.70
2019-01-28T14:34:47.754Z,96224.08
2019-01-28T14:37:19.405Z,96212.44
2019-01-28T14:39:50.980Z,96219.94
2019-01-28T14:42:22.769Z,96211.69
2019-01-28T14:44:54.412Z,96207.17
2019-01-28T14:47:25.991Z,96204.95
2019-01-28T14:49:59.986Z,96205.36
2019-01-28T14:52:31.973Z,96205.02
2019-01-28T14:55:03.828Z,96207.66
2019-01-28T14:57:35.950Z,96202.65
2019-01-28T15:00:09.983Z,96191.34
2019-01-28T15:02:41.553Z,96188.94
2019-01-28T15:05:13.943Z,96187.39
2019-01-28T15:07:45.853Z,96187.66
2019-01-28T15:10:18.595Z,96181.25
2019-01-28T15:12:51.463Z,96185.55
2019-01-28T15:15:29.740Z,96178.88
2019-01-28T15:18:03.777Z,96183.17
2019-01-28T15:20:36.520Z,96187.39
2019-01-28T15:23:08.135Z,96178.47
2019-01-28T15:25:40.410Z,96183.59
2019-01-28T15:28:12.539Z,96193.38
2019-01-28T15:30:46.308Z,96189.17
2019-01-28T15:33:18.637Z,96180.95
2019-01-28T15:35:50.453Z,96179.34
2019-01-28T15:38:21.927Z,96196.96
2019-01-28T15:40:54.377Z,96198.05
2019-01-28T15:43:28.361Z,96200.00
2019-01-28T15:46:00.071Z,96203.06
2019-01-28T15:48:31.531Z,96200.56
2019-01-28T15:51:03.417Z,96193.22
2019-01-28T15:53:34.947Z,96193.10
2019-01-28T15:56:06.889Z,96195.84
2019-01-28T15:58:40.770Z,96192.38
2019-01-28T16:01:12.392Z,96192.44
2019-01-28T16:03:45.652Z,96195.29
2019-01-28T16:06:17.147Z,96193.38
2019-01-28T16:08:48.851Z,96194.27
2019-01-28T16:11:21.422Z,96206.23
2019-01-28T16:13:52.946Z,96198.59
2019-01-28T16:16:24.623Z,96204.68
2019-01-28T16:18:58.901Z,96205.73
2019-01-28T16:21:30.492Z,96184.06
2019-01-28T16:24:03.685Z,96197.59
2019-01-28T16:26:35.349Z,96207.72
2019-01-28T16:29:06.962Z,96196.75
2019-01-28T16:31:38.545Z,96192.20
2019-01-28T16:34:10.038Z,96212.26
2019-01-28T16:36:41.591Z,96213.15
2019-01-28T16:39:13.269Z,96208.92
2019-01-28T16:41:44.730Z,96207.88
2019-01-28T16:44:16.614Z,96214.41
2019-01-28T16:46:48.281Z,96202.44
2019-01-28T16:49:19.835Z,96197.46
2019-01-28T16:51:52.140Z,96212.67
2019-01-28T16:54:23.679Z,96203.74
2019-01-28T16:56:55.174Z,96214.66
2019-01-28T16:59:26.830Z,96202.55
2019-01-28T17:02:00.607Z,96204.31
2019-01-28T17:04:32.251Z,96214.92
2019-01-28T17:07:03.868Z,96221.20
2019-01-28T17:09:35.399Z,96217.92
2019-01-28T17:12:07.107Z,96222.22
2019-01-28T17:14:38.662Z,96218.17
2019-01-28T17:17:10.225Z,96218.70
2019-01-28T17:19:41.800Z,96209.53
2019-01-28T17:22:13.327Z,96220.52
2019-01-28T17:24:46.048Z,96220.58
2019-01-28T17:27:17.768Z,96218.25
2019-01-28T17:29:49.324Z,96216.90
2019-01-28T17:32:21.075Z,96228.33
2019-01-28T17:34:52.634Z,96222.38
2019-01-28T17:37:24.203Z,96218.53
2019-01-28T17:39:55.823Z,96215.88
2019-01-28T17:42:27.317Z,96226.86
2019-01-28T17:44:58.952Z,96199.30
2019-01-28T17:47:30.446Z,96193.22
2019-01-28T17:50:02.139Z,96202.83
2019-01-28T17:52:33.650Z,96199.92
2019-01-28T17:55:06.016Z,96196.32
2019-01-28T17:57:37.669Z,96207.09
2019-01-28T18:00:16.451Z,96203.23
2019-01-28T18:02:48.025Z,96205.01
2019-01-28T18:05:19.644Z,96205.92
2019-01-28T18:07:51.272Z,96201.03
2019-01-28T18:10:22.786Z,96209.88
2019-01-28T18:12:54.585Z,96209.25
2019-01-28T18:15:26.237Z,96213.44
2019-01-28T18:17:57.853Z,96212.94
2019-01-28T18:20:29.525Z,96212.22
2019-01-28T18:23:04.732Z,96213.95
2019-01-28T18:25:36.382Z,96210.42
2019-01-28T18:28:08.472Z,96206.15
2019-01-28T18:30:45.485Z,96198.81
2019-01-28T18:33:17.815Z,96190.98
2019-01-28T18:35:52.772Z,96195.88
2019-01-28T18:38:25.013Z,96191.95
2019-01-28T18:40:59.984Z,96178.22
2019-01-28T18:43:31.752Z,96180.91
2019-01-28T18:46:03.943Z,96185.02
2019-01-28T18:48:35.630Z,96182.11
2019-01-28T18:51:07.513Z,96189.95
2019-01-28T18:53:41.177Z,96195.25
2019-01-28T18:56:12.803Z,96195.49
2019-01-28T18:58:44.310Z,96197.61
2019-01-28T19:01:16.002Z,96182.31
2019-01-28T19:03:47.573Z,96201.00
2019-01-28T19:06:40.961Z,96193.17
2019-01-28T19:09:20.172Z,96207.14
2019-01-28T19:12:22.702Z,96206.34
2019-01-28T19:15:05.610Z,96188.83
2019-01-28T19:17:48.390Z,96184.52
2019-01-28T19:20:24.969Z,96200.05
2019-01-28T19:22:56.503Z,96200.75
2019-01-28T19:25:28.026Z,96192.92
2019-01-28T19:27:59.466Z,96196.94
2019-01-28T19:30:31.106Z,96199.84
2019-01-28T19:33:02.737Z,96203.84
2019-01-28T19:35:34.422Z,96197.05
2019-01-28T19:38:06.010Z,96197.63
2019-01-28T19:40:37.605Z,96189.02
2019-01-28T19:43:12.129Z,96199.63
2019-01-28T19:45:43.807Z,96189.02
2019-01-28T19:48:15.234Z,96189.80
2019-01-28T19:50:46.744Z,96183.51
2019-01-28T19:53:18.925Z,96185.80
2019-01-28T19:55:50.550Z,96191.73
2019-01-28T19:58:22.102Z,96202.70
2019-01-28T20:00:53.612Z,96208.05
2019-01-28T20:03:26.583Z,96213.77
2019-01-28T20:05:58.167Z,96206.77
2019-01-28T20:08:29.655Z,96189.94
2019-01-28T20:11:01.267Z,96193.67
2019-01-28T20:13:32.920Z,96190.28
2019-01-28T20:16:04.470Z,96195.29
2019-01-28T20:18:36.042Z,96189.23
2019-01-28T20:21:07.655Z,96203.03
2019-01-28T20:23:39.248Z,96204.23
2019-01-28T20:26:10.830Z,96206.93
2019-01-28T20:28:42.355Z,96200.75
2019-01-28T20:31:14.123Z,96202.53
2019-01-28T20:33:45.619Z,96213.84
2019-01-28T20:36:17.166Z,96217.03
2019-01-28T20:38:48.908Z,96201.25
2019-01-28T20:41:20.589Z,96207.21
2019-01-28T20:43:52.194Z,96202.20
2019-01-28T20:46:23.928Z,96203.14
2019-01-28T20:48:55.482Z,96201.49
2019-01-28T20:51:32.101Z,96196.69
2019-01-28T20:54:00.493Z,96217.20
2019-01-28T20:56:32.148Z,96216.26
2019-01-28T20:59:03.692Z,96213.09
2019-01-28T21:01:35.486Z,96216.33
2019-01-28T21:04:07.068Z,96219.28
2019-01-28T21:06:38.691Z,96214.88
2019-01-28T21:09:10.722Z,96201.46
2019-01-28T21:11:42.340Z,96199.75
2019-01-28T21:14:14.030Z,96206.99
2019-01-28T21:16:45.723Z,96199.31
2019-01-28T21:19:17.337Z,96197.08
2019-01-28T21:21:48.962Z,96195.91
2019-01-28T21:24:20.549Z,96201.76
2019-01-28T21:26:52.066Z,96210.27
2019-01-28T21:29:23.697Z,96194.39
2019-01-28T21:31:55.220Z,96199.87
2019-01-28T21:34:26.782Z,96188.06
2019-01-28T21:37:30.834Z,96189.02
2019-01-28T21:40:03.752Z,96186.44
2019-01-28T21:42:36.305Z,96191.91
2019-01-28T21:45:10.751Z,96194.85
2019-01-28T21:47:55.182Z,96188.42
2019-01-28T21:50:28.034Z,96183.87
2019-01-28T21:53:03.315Z,96188.88
2019-01-28T21:55:36.934Z,96197.17
2019-01-28T21:58:08.684Z,96194.97
2019-01-28T22:00:40.357Z,96188.08
2019-01-28T22:03:11.921Z,96195.77
2019-01-28T22:05:44.645Z,96195.19
2019-01-28T22:08:16.164Z,96196.13
2019-01-28T22:10:47.791Z,96190.75
2019-01-28T22:13:21.984Z,96197.87
2019-01-28T22:15:54.798Z,96188.88
2019-01-28T22:18:27.201Z,96182.91
2019-01-28T22:20:58.992Z,96192.98
2019-01-28T22:23:32.102Z,96193.20
2019-01-28T22:26:05.027Z,96175.21
2019-01-28T22:28:36.482Z,96190.30
2019-01-28T22:31:07.995Z,96194.27
2019-01-28T22:33:40.684Z,96198.46
2019-01-28T22:36:12.233Z,96194.36
2019-01-28T22:38:46.475Z,96193.44
2019-01-28T22:41:18.877Z,96204.88
2019-01-28T22:43:50.425Z,96194.73
2019-01-28T22:46:22.665Z,96186.56
2019-01-28T22:48:55.164Z,96191.45
2019-01-28T22:51:27.827Z,96188.52
2019-01-28T22:53:59.500Z,96182.92
2019-01-28T22:56:32.261Z,96194.70
2019-01-28T22:59:03.736Z,96191.22
2019-01-28T23:01:41.243Z,96187.23
2019-01-28T23:04:14.166Z,96190.72
2019-01-28T23:06:45.743Z,96186.08
2019-01-28T23:09:18.507Z,96184.67
2019-01-28T23:11:50.416Z,96186.75
2019-01-28T23:14:21.977Z,96187.00
2019-01-28T23:16:57.575Z,96193.50
2019-01-28T23:19:29.195Z,96189.78
2019-01-28T23:22:00.710Z,96192.47
2019-01-28T23:24:32.358Z,96185.67
2019-01-28T23:27:04.114Z,96190.72
2019-01-28T23:29:37.657Z,96188.49
2019-01-28T23:32:12.413Z,96197.85
2019-01-28T23:34:44.029Z,96192.92
2019-01-28T23:37:17.366Z,96192.47
2019-01-28T23:39:49.299Z,96190.97
2019-01-28T23:42:20.987Z,96198.44
2019-01-28T23:44:53.444Z,96200.42
2019-01-28T23:47:25.146Z,96210.02
2019-01-28T23:49:56.817Z,96207.34
2019-01-28T23:52:30.240Z,96224.73
2019-01-28T23:55:01.767Z,96210.85
2019-01-28T23:57:33.323Z,96231.87
